sensor_id;sensor_type;location;lat;lon;timestamp;temperature;humidity
1644;DHT22;46825;51.99869940;8.49421771;2023-03-13T00:00:45;9.70;99.90
1644;DHT22;46825;51.99869940;8.49421771;2023-03-13T00:01:48;8.60;99.90
1644;DHT22;46825;51.99869940;8.49421771;2023-03-13T00:02:49;8.70;99.90
1644;DHT22;46825;51.99869940;8.49421771;2023-03-13T00:03:49;8.70;99.90
1644;DHT22;46825;51.99869940;8.49421771;2023-03-13T00:04:50;8.70;99.90
1644;DHT22;46825;51.99869940;8.49421771;2023-03-13T00:05:57;8.80;99.90
1644;DHT22;46825;51.99869940;8.49421771;2023-03-13T00:06:58;8.90;99.90
1644;DHT22;46825;51.99869940;8.49421771;2023-03-13T00:07:59;8.70;99.90
1644;DHT22;46825;51.99869940;8.49421771;2023-03-13T00:09:00;8.60;99.90
1644;DHT22;46825;51.99869940;8.49421771;2023-03-13T00:10:01;8.60;99.90
1644;DHT22;46825;51.99869940;8.49421771;2023-03-13T00:11:06;8.60;99.90
1644;DHT22;46825;51.99869940;8.49421771;2023-03-13T00:12:06;8.60;99.90
1644;DHT22;46825;51.99869940;8.49421771;2023-03-13T00:13:07;8.60;99.90
1644;DHT22;46825;51.99869940;8.49421771;2023-03-13T00:14:08;8.60;99.90
1644;DHT22;46825;51.99869940;8.49421771;2023-03-13T00:15:09;9.50;99.90
1644;DHT22;46825;51.99869940;8.49421771;2023-03-13T00:16:12;8.60;99.90
1644;DHT22;46825;51.99869940;8.49421771;2023-03-13T00:17:13;8.70;99.90
1644;DHT22;46825;51.99869940;8.49421771;2023-03-13T00:18:13;8.60;99.90
1644;DHT22;46825;51.99869940;8.49421771;2023-03-13T00:19:14;8.60;99.90
1644;DHT22;46825;51.99869940;8.49421771;2023-03-13T00:20:15;8.60;99.90
1644;DHT22;46825;51.99869940;8.49421771;2023-03-13T00:21:18;8.60;99.90
1644;DHT22;46825;51.99869940;8.49421771;2023-03-13T00:22:19;8.70;99.90
1644;DHT22;46825;51.99869940;8.49421771;2023-03-13T00:23:20;8.60;99.90
1644;DHT22;46825;51.99869940;8.49421771;2023-03-13T00:24:20;8.50;99.90
1644;DHT22;46825;51.99869940;8.49421771;2023-03-13T00:25:21;8.50;99.90
1644;DHT22;46825;51.99869940;8.49421771;2023-03-13T00:26:24;8.50;99.90
1644;DHT22;46825;51.99869940;8.49421771;2023-03-13T00:27:25;8.50;99.90
1644;DHT22;46825;51.99869940;8.49421771;2023-03-13T00:28:30;8.40;99.90
1644;DHT22;46825;51.99869940;8.49421771;2023-03-13T00:29:32;8.50;99.90
1644;DHT22;46825;51.99869940;8.49421771;2023-03-13T00:30:33;8.50;99.90
1644;DHT22;46825;51.99869940;8.49421771;2023-03-13T00:31:34;8.50;99.90
1644;DHT22;46825;51.99869940;8.49421771;2023-03-13T00:32:43;8.50;99.90
1644;DHT22;46825;51.99869940;8.49421771;2023-03-13T00:33:46;8.40;99.90
1644;DHT22;46825;51.99869940;8.49421771;2023-03-13T00:34:47;8.50;99.90
1644;DHT22;46825;51.99869940;8.49421771;2023-03-13T00:35:47;8.50;99.90
1644;DHT22;46825;51.99869940;8.49421771;2023-03-13T00:36:48;8.40;99.90
1644;DHT22;46825;51.99869940;8.49421771;2023-03-13T00:37:48;8.40;99.90
1644;DHT22;46825;51.99869940;8.49421771;2023-03-13T00:38:50;8.40;99.90
1644;DHT22;46825;51.99869940;8.49421771;2023-03-13T00:39:51;8.40;99.90
1644;DHT22;46825;51.99869940;8.49421771;2023-03-13T00:41:01;8.40;99.90
1644;DHT22;46825;51.99869940;8.49421771;2023-03-13T00:42:05;8.40;99.90
1644;DHT22;46825;51.99869940;8.49421771;2023-03-13T00:43:05;8.40;99.90
1644;DHT22;46825;51.99869940;8.49421771;2023-03-13T00:44:06;8.40;99.90
1644;DHT22;46825;51.99869940;8.49421771;2023-03-13T00:45:07;8.40;99.90
1644;DHT22;46825;51.99869940;8.49421771;2023-03-13T00:46:09;8.50;99.90
1644;DHT22;46825;51.99869940;8.49421771;2023-03-13T00:47:09;8.40;99.90
1644;DHT22;46825;51.99869940;8.49421771;2023-03-13T00:48:10;8.50;99.90
1644;DHT22;46825;51.99869940;8.49421771;2023-03-13T00:49:10;8.40;99.90
1644;DHT22;46825;51.99869940;8.49421771;2023-03-13T00:50:11;8.50;99.90
1644;DHT22;46825;51.99869940;8.49421771;2023-03-13T00:51:13;8.40;99.90
1644;DHT22;46825;51.99869940;8.49421771;2023-03-13T00:52:13;8.40;99.90
1644;DHT22;46825;51.99869940;8.49421771;2023-03-13T00:53:14;8.40;99.90
1644;DHT22;46825;51.99869940;8.49421771;2023-03-13T00:54:15;8.40;99.90
1644;DHT22;46825;51.99869940;8.49421771;2023-03-13T00:55:16;8.40;99.90
1644;DHT22;46825;51.99869940;8.49421771;2023-03-13T00:56:18;8.40;99.90
1644;DHT22;46825;51.99869940;8.49421771;2023-03-13T00:57:19;8.40;99.90
1644;DHT22;46825;51.99869940;8.49421771;2023-03-13T00:58:20;8.40;99.90
1644;DHT22;46825;51.99869940;8.49421771;2023-03-13T00:59:21;8.40;99.90
1644;DHT22;46825;51.99869940;8.49421771;2023-03-13T01:00:21;8.40;99.90
1644;DHT22;46825;51.99869940;8.49421771;2023-03-13T01:01:24;8.40;99.90
1644;DHT22;46825;51.99869940;8.49421771;2023-03-13T01:02:25;8.40;99.90
1644;DHT22;46825;51.99869940;8.49421771;2023-03-13T01:03:25;8.40;99.90
1644;DHT22;46825;51.99869940;8.49421771;2023-03-13T01:04:26;8.40;99.90
1644;DHT22;46825;51.99869940;8.49421771;2023-03-13T01:05:27;8.40;99.90
1644;DHT22;46825;51.99869940;8.49421771;2023-03-13T01:06:29;8.50;99.90
1644;DHT22;46825;51.99869940;8.49421771;2023-03-13T01:07:30;8.50;99.90
1644;DHT22;46825;51.99869940;8.49421771;2023-03-13T01:08:31;8.50;99.90
1644;DHT22;46825;51.99869940;8.49421771;2023-03-13T01:09:31;8.50;99.90
1644;DHT22;46825;51.99869940;8.49421771;2023-03-13T01:10:33;7.10;99.90
1644;DHT22;46825;51.99869940;8.49421771;2023-03-13T01:11:36;8.50;99.90
1644;DHT22;46825;51.99869940;8.49421771;2023-03-13T01:12:37;8.50;99.90
1644;DHT22;46825;51.99869940;8.49421771;2023-03-13T01:13:38;8.60;99.90
1644;DHT22;46825;51.99869940;8.49421771;2023-03-13T01:14:39;8.50;99.90
1644;DHT22;46825;51.99869940;8.49421771;2023-03-13T01:15:39;8.50;99.90
1644;DHT22;46825;51.99869940;8.49421771;2023-03-13T01:16:40;8.50;99.90
1644;DHT22;46825;51.99869940;8.49421771;2023-03-13T01:17:42;8.50;99.90
1644;DHT22;46825;51.99869940;8.49421771;2023-03-13T01:18:45;8.50;99.90
1644;DHT22;46825;51.99869940;8.49421771;2023-03-13T01:19:46;8.50;99.90
1644;DHT22;46825;51.99869940;8.49421771;2023-03-13T01:20:47;8.50;99.90
1644;DHT22;46825;51.99869940;8.49421771;2023-03-13T01:21:47;8.50;99.90
1644;DHT22;46825;51.99869940;8.49421771;2023-03-13T01:22:48;8.50;99.90
1644;DHT22;46825;51.99869940;8.49421771;2023-03-13T01:23:50;8.50;99.90
1644;DHT22;46825;51.99869940;8.49421771;2023-03-13T01:24:50;8.50;99.90
1644;DHT22;46825;51.99869940;8.49421771;2023-03-13T01:25:53;8.50;99.90
1644;DHT22;46825;51.99869940;8.49421771;2023-03-13T01:26:54;8.60;99.90
1644;DHT22;46825;51.99869940;8.49421771;2023-03-13T01:27:54;8.50;99.90
1644;DHT22;46825;51.99869940;8.49421771;2023-03-13T01:28:55;8.50;99.90
1644;DHT22;46825;51.99869940;8.49421771;2023-03-13T01:29:56;8.60;99.90
1644;DHT22;46825;51.99869940;8.49421771;2023-03-13T01:30:57;8.60;99.90
1644;DHT22;46825;51.99869940;8.49421771;2023-03-13T01:31:58;8.60;99.90
1644;DHT22;46825;51.99869940;8.49421771;2023-03-13T01:32:58;8.60;99.90
1644;DHT22;46825;51.99869940;8.49421771;2023-03-13T01:34:02;8.60;99.90
1644;DHT22;46825;51.99869940;8.49421771;2023-03-13T01:35:03;8.60;99.90
1644;DHT22;46825;51.99869940;8.49421771;2023-03-13T01:36:03;8.60;99.90
1644;DHT22;46825;51.99869940;8.49421771;2023-03-13T01:37:04;8.60;99.90
1644;DHT22;46825;51.99869940;8.49421771;2023-03-13T01:38:05;8.50;99.90
1644;DHT22;46825;51.99869940;8.49421771;2023-03-13T01:39:06;8.60;99.90
1644;DHT22;46825;51.99869940;8.49421771;2023-03-13T01:40:07;8.60;99.90
1644;DHT22;46825;51.99869940;8.49421771;2023-03-13T01:41:10;8.60;99.90
1644;DHT22;46825;51.99869940;8.49421771;2023-03-13T01:42:11;8.60;99.90
1644;DHT22;46825;51.99869940;8.49421771;2023-03-13T01:43:23;8.60;99.90
1644;DHT22;46825;51.99869940;8.49421771;2023-03-13T01:44:25;8.50;99.90
1644;DHT22;46825;51.99869940;8.49421771;2023-03-13T01:46:57;8.50;99.90
1644;DHT22;46825;51.99869940;8.49421771;2023-03-13T01:47:58;8.50;99.90
1644;DHT22;46825;51.99869940;8.49421771;2023-03-13T01:50:26;8.50;99.90
1644;DHT22;46825;51.99869940;8.49421771;2023-03-13T01:51:41;8.40;99.90
1644;DHT22;46825;51.99869940;8.49421771;2023-03-13T01:52:42;8.40;99.90
1644;DHT22;46825;51.99869940;8.49421771;2023-03-13T01:53:45;8.40;99.90
1644;DHT22;46825;51.99869940;8.49421771;2023-03-13T01:55:00;8.40;99.90
1644;DHT22;46825;51.99869940;8.49421771;2023-03-13T01:56:05;8.40;99.90
1644;DHT22;46825;51.99869940;8.49421771;2023-03-13T01:57:25;8.40;99.90
1644;DHT22;46825;51.99869940;8.49421771;2023-03-13T01:58:27;8.40;99.90
1644;DHT22;46825;51.99869940;8.49421771;2023-03-13T01:59:31;8.30;99.90
1644;DHT22;46825;51.99869940;8.49421771;2023-03-13T02:00:35;8.30;99.90
1644;DHT22;46825;51.99869940;8.49421771;2023-03-13T02:01:36;8.30;99.90
1644;DHT22;46825;51.99869940;8.49421771;2023-03-13T02:02:40;8.30;99.90
1644;DHT22;46825;51.99869940;8.49421771;2023-03-13T02:03:42;8.30;99.90
1644;DHT22;46825;51.99869940;8.49421771;2023-03-13T02:04:47;8.30;99.90
1644;DHT22;46825;51.99869940;8.49421771;2023-03-13T02:05:49;8.30;99.90
1644;DHT22;46825;51.99869940;8.49421771;2023-03-13T02:06:53;8.30;99.90
1644;DHT22;46825;51.99869940;8.49421771;2023-03-13T02:08:09;8.30;99.90
1644;DHT22;46825;51.99869940;8.49421771;2023-03-13T02:09:14;8.20;99.90
1644;DHT22;46825;51.99869940;8.49421771;2023-03-13T02:10:17;8.20;99.90
1644;DHT22;46825;51.99869940;8.49421771;2023-03-13T02:11:48;8.20;99.90
1644;DHT22;46825;51.99869940;8.49421771;2023-03-13T02:12:52;8.20;99.90
1644;DHT22;46825;51.99869940;8.49421771;2023-03-13T02:13:54;8.20;99.90
1644;DHT22;46825;51.99869940;8.49421771;2023-03-13T02:14:57;8.20;99.90
1644;DHT22;46825;51.99869940;8.49421771;2023-03-13T02:15:59;8.20;99.90
1644;DHT22;46825;51.99869940;8.49421771;2023-03-13T02:17:00;8.20;99.90
1644;DHT22;46825;51.99869940;8.49421771;2023-03-13T02:18:02;8.20;99.90
1644;DHT22;46825;51.99869940;8.49421771;2023-03-13T02:19:19;8.20;99.90
1644;DHT22;46825;51.99869940;8.49421771;2023-03-13T02:20:23;8.20;99.90
1644;DHT22;46825;51.99869940;8.49421771;2023-03-13T02:21:26;8.10;99.90
1644;DHT22;46825;51.99869940;8.49421771;2023-03-13T02:26:23;8.10;99.90
1644;DHT22;46825;51.99869940;8.49421771;2023-03-13T02:27:24;8.20;99.90
1644;DHT22;46825;51.99869940;8.49421771;2023-03-13T02:28:28;8.20;99.90
1644;DHT22;46825;51.99869940;8.49421771;2023-03-13T02:29:32;8.30;99.90
1644;DHT22;46825;51.99869940;8.49421771;2023-03-13T02:30:33;8.20;99.90
1644;DHT22;46825;51.99869940;8.49421771;2023-03-13T02:31:34;8.20;99.90
1644;DHT22;46825;51.99869940;8.49421771;2023-03-13T02:32:35;8.20;99.90
1644;DHT22;46825;51.99869940;8.49421771;2023-03-13T02:33:39;8.20;99.90
1644;DHT22;46825;51.99869940;8.49421771;2023-03-13T02:34:41;8.20;99.90
1644;DHT22;46825;51.99869940;8.49421771;2023-03-13T02:35:43;8.30;99.90
1644;DHT22;46825;51.99869940;8.49421771;2023-03-13T02:36:45;8.30;99.90
1644;DHT22;46825;51.99869940;8.49421771;2023-03-13T02:37:54;8.30;99.90
1644;DHT22;46825;51.99869940;8.49421771;2023-03-13T02:39:00;8.30;99.90
1644;DHT22;46825;51.99869940;8.49421771;2023-03-13T02:40:05;8.30;99.90
1644;DHT22;46825;51.99869940;8.49421771;2023-03-13T02:41:09;8.30;99.90
1644;DHT22;46825;51.99869940;8.49421771;2023-03-13T02:42:12;8.30;99.90
1644;DHT22;46825;51.99869940;8.49421771;2023-03-13T02:43:20;8.30;99.90
1644;DHT22;46825;51.99869940;8.49421771;2023-03-13T02:44:21;8.30;99.90
1644;DHT22;46825;51.99869940;8.49421771;2023-03-13T02:45:22;8.40;99.90
1644;DHT22;46825;51.99869940;8.49421771;2023-03-13T02:46:22;8.40;99.90
1644;DHT22;46825;51.99869940;8.49421771;2023-03-13T02:47:24;8.40;99.90
1644;DHT22;46825;51.99869940;8.49421771;2023-03-13T02:48:36;8.40;99.90
1644;DHT22;46825;51.99869940;8.49421771;2023-03-13T02:49:36;8.40;99.90
1644;DHT22;46825;51.99869940;8.49421771;2023-03-13T02:50:37;8.40;99.90
1644;DHT22;46825;51.99869940;8.49421771;2023-03-13T02:51:41;8.40;99.90
1644;DHT22;46825;51.99869940;8.49421771;2023-03-13T02:52:46;8.40;99.90
1644;DHT22;46825;51.99869940;8.49421771;2023-03-13T02:53:49;8.40;99.90
1644;DHT22;46825;51.99869940;8.49421771;2023-03-13T02:54:54;8.40;99.90
1644;DHT22;46825;51.99869940;8.49421771;2023-03-13T02:55:56;8.50;99.90
1644;DHT22;46825;51.99869940;8.49421771;2023-03-13T02:56:59;8.50;99.90
1644;DHT22;46825;51.99869940;8.49421771;2023-03-13T02:58:01;8.50;99.90
1644;DHT22;46825;51.99869940;8.49421771;2023-03-13T02:59:01;8.50;99.90
1644;DHT22;46825;51.99869940;8.49421771;2023-03-13T03:00:03;8.40;99.90
1644;DHT22;46825;51.99869940;8.49421771;2023-03-13T03:01:06;8.50;99.90
1644;DHT22;46825;51.99869940;8.49421771;2023-03-13T03:02:06;8.40;99.90
1644;DHT22;46825;51.99869940;8.49421771;2023-03-13T03:03:07;8.40;99.90
1644;DHT22;46825;51.99869940;8.49421771;2023-03-13T03:04:08;8.40;99.90
1644;DHT22;46825;51.99869940;8.49421771;2023-03-13T03:05:09;8.40;99.90
1644;DHT22;46825;51.99869940;8.49421771;2023-03-13T03:06:10;8.40;99.90
1644;DHT22;46825;51.99869940;8.49421771;2023-03-13T03:07:11;8.40;99.90
1644;DHT22;46825;51.99869940;8.49421771;2023-03-13T03:08:11;9.50;99.90
1644;DHT22;46825;51.99869940;8.49421771;2023-03-13T03:09:12;8.40;99.90
1644;DHT22;46825;51.99869940;8.49421771;2023-03-13T03:10:13;8.30;99.90
1644;DHT22;46825;51.99869940;8.49421771;2023-03-13T03:11:13;8.40;99.90
1644;DHT22;46825;51.99869940;8.49421771;2023-03-13T03:12:14;8.40;99.90
1644;DHT22;46825;51.99869940;8.49421771;2023-03-13T03:13:14;8.40;99.90
1644;DHT22;46825;51.99869940;8.49421771;2023-03-13T03:14:16;8.40;99.90
1644;DHT22;46825;51.99869940;8.49421771;2023-03-13T03:15:16;8.30;99.90
1644;DHT22;46825;51.99869940;8.49421771;2023-03-13T03:16:17;8.30;99.90
1644;DHT22;46825;51.99869940;8.49421771;2023-03-13T03:17:18;8.30;99.90
1644;DHT22;46825;51.99869940;8.49421771;2023-03-13T03:18:18;8.30;99.90
1644;DHT22;46825;51.99869940;8.49421771;2023-03-13T03:19:19;8.30;99.90
1644;DHT22;46825;51.99869940;8.49421771;2023-03-13T03:20:19;8.30;99.90
1644;DHT22;46825;51.99869940;8.49421771;2023-03-13T03:21:20;8.30;99.90
1644;DHT22;46825;51.99869940;8.49421771;2023-03-13T03:22:21;8.30;99.90
1644;DHT22;46825;51.99869940;8.49421771;2023-03-13T03:23:22;8.30;99.90
1644;DHT22;46825;51.99869940;8.49421771;2023-03-13T03:24:23;8.30;99.90
1644;DHT22;46825;51.99869940;8.49421771;2023-03-13T03:25:23;8.30;99.90
1644;DHT22;46825;51.99869940;8.49421771;2023-03-13T03:26:24;8.30;99.90
1644;DHT22;46825;51.99869940;8.49421771;2023-03-13T03:27:25;8.30;99.90
1644;DHT22;46825;51.99869940;8.49421771;2023-03-13T03:28:25;8.30;99.90
1644;DHT22;46825;51.99869940;8.49421771;2023-03-13T03:29:26;8.30;99.90
1644;DHT22;46825;51.99869940;8.49421771;2023-03-13T03:30:27;8.30;99.90
1644;DHT22;46825;51.99869940;8.49421771;2023-03-13T03:31:29;8.40;99.90
1644;DHT22;46825;51.99869940;8.49421771;2023-03-13T03:32:30;8.30;99.90
1644;DHT22;46825;51.99869940;8.49421771;2023-03-13T03:33:30;8.30;99.90
1644;DHT22;46825;51.99869940;8.49421771;2023-03-13T03:34:31;8.30;99.90
1644;DHT22;46825;51.99869940;8.49421771;2023-03-13T03:35:32;8.20;99.90
1644;DHT22;46825;51.99869940;8.49421771;2023-03-13T03:36:34;8.30;99.90
1644;DHT22;46825;51.99869940;8.49421771;2023-03-13T03:37:35;8.20;99.90
1644;DHT22;46825;51.99869940;8.49421771;2023-03-13T03:38:36;8.30;99.90
1644;DHT22;46825;51.99869940;8.49421771;2023-03-13T03:39:39;8.20;99.90
1644;DHT22;46825;51.99869940;8.49421771;2023-03-13T03:40:39;8.30;99.90
1644;DHT22;46825;51.99869940;8.49421771;2023-03-13T03:41:40;8.30;99.90
1644;DHT22;46825;51.99869940;8.49421771;2023-03-13T03:42:40;8.30;99.90
1644;DHT22;46825;51.99869940;8.49421771;2023-03-13T03:43:41;8.20;99.90
1644;DHT22;46825;51.99869940;8.49421771;2023-03-13T03:44:42;8.30;99.90
1644;DHT22;46825;51.99869940;8.49421771;2023-03-13T03:45:42;8.30;99.90
1644;DHT22;46825;51.99869940;8.49421771;2023-03-13T03:46:43;8.20;99.90
1644;DHT22;46825;51.99869940;8.49421771;2023-03-13T03:47:44;8.30;99.90
1644;DHT22;46825;51.99869940;8.49421771;2023-03-13T03:48:44;8.30;99.90
1644;DHT22;46825;51.99869940;8.49421771;2023-03-13T03:49:45;8.30;99.90
1644;DHT22;46825;51.99869940;8.49421771;2023-03-13T03:50:45;8.30;99.90
1644;DHT22;46825;51.99869940;8.49421771;2023-03-13T03:51:46;8.30;99.90
1644;DHT22;46825;51.99869940;8.49421771;2023-03-13T03:52:47;8.30;99.90
1644;DHT22;46825;51.99869940;8.49421771;2023-03-13T03:53:48;8.30;99.90
1644;DHT22;46825;51.99869940;8.49421771;2023-03-13T03:54:49;8.30;99.90
1644;DHT22;46825;51.99869940;8.49421771;2023-03-13T03:55:49;8.30;99.90
1644;DHT22;46825;51.99869940;8.49421771;2023-03-13T03:56:50;8.30;99.90
1644;DHT22;46825;51.99869940;8.49421771;2023-03-13T03:57:50;8.30;99.90
1644;DHT22;46825;51.99869940;8.49421771;2023-03-13T03:58:51;8.30;99.90
1644;DHT22;46825;51.99869940;8.49421771;2023-03-13T03:59:51;8.30;99.90
1644;DHT22;46825;51.99869940;8.49421771;2023-03-13T04:00:55;8.30;99.90
1644;DHT22;46825;51.99869940;8.49421771;2023-03-13T04:01:56;8.30;99.90
1644;DHT22;46825;51.99869940;8.49421771;2023-03-13T04:02:56;8.30;99.90
1644;DHT22;46825;51.99869940;8.49421771;2023-03-13T04:03:57;8.30;99.90
1644;DHT22;46825;51.99869940;8.49421771;2023-03-13T04:04:57;8.30;99.90
1644;DHT22;46825;51.99869940;8.49421771;2023-03-13T04:05:58;8.50;99.90
1644;DHT22;46825;51.99869940;8.49421771;2023-03-13T04:06:59;8.30;99.90
1644;DHT22;46825;51.99869940;8.49421771;2023-03-13T04:07:59;8.30;99.90
1644;DHT22;46825;51.99869940;8.49421771;2023-03-13T04:09:00;8.40;99.90
1644;DHT22;46825;51.99869940;8.49421771;2023-03-13T04:10:01;8.40;99.90
1644;DHT22;46825;51.99869940;8.49421771;2023-03-13T04:11:01;8.40;99.90
1644;DHT22;46825;51.99869940;8.49421771;2023-03-13T04:12:02;8.40;99.90
1644;DHT22;46825;51.99869940;8.49421771;2023-03-13T04:13:03;8.40;99.90
1644;DHT22;46825;51.99869940;8.49421771;2023-03-13T04:14:04;8.40;99.90
1644;DHT22;46825;51.99869940;8.49421771;2023-03-13T04:15:05;8.40;99.90
1644;DHT22;46825;51.99869940;8.49421771;2023-03-13T04:16:06;8.40;99.90
1644;DHT22;46825;51.99869940;8.49421771;2023-03-13T04:17:07;8.40;99.90
1644;DHT22;46825;51.99869940;8.49421771;2023-03-13T04:18:08;8.40;99.90
1644;DHT22;46825;51.99869940;8.49421771;2023-03-13T04:19:08;8.40;99.90
1644;DHT22;46825;51.99869940;8.49421771;2023-03-13T04:20:09;8.40;99.90
1644;DHT22;46825;51.99869940;8.49421771;2023-03-13T04:21:11;8.40;99.90
1644;DHT22;46825;51.99869940;8.49421771;2023-03-13T04:22:12;8.40;99.90
1644;DHT22;46825;51.99869940;8.49421771;2023-03-13T04:23:12;8.40;99.90
1644;DHT22;46825;51.99869940;8.49421771;2023-03-13T04:24:13;8.40;99.90
1644;DHT22;46825;51.99869940;8.49421771;2023-03-13T04:25:14;8.50;99.90
1644;DHT22;46825;51.99869940;8.49421771;2023-03-13T04:26:14;8.40;99.90
1644;DHT22;46825;51.99869940;8.49421771;2023-03-13T04:27:15;8.50;99.90
1644;DHT22;46825;51.99869940;8.49421771;2023-03-13T04:28:16;8.50;99.90
1644;DHT22;46825;51.99869940;8.49421771;2023-03-13T04:29:16;8.40;99.90
1644;DHT22;46825;51.99869940;8.49421771;2023-03-13T04:30:17;8.50;99.90
1644;DHT22;46825;51.99869940;8.49421771;2023-03-13T04:31:17;8.50;99.90
1644;DHT22;46825;51.99869940;8.49421771;2023-03-13T04:32:18;8.40;99.90
1644;DHT22;46825;51.99869940;8.49421771;2023-03-13T04:33:18;8.50;99.90
1644;DHT22;46825;51.99869940;8.49421771;2023-03-13T04:34:19;8.40;99.90
1644;DHT22;46825;51.99869940;8.49421771;2023-03-13T04:35:20;8.50;99.90
1644;DHT22;46825;51.99869940;8.49421771;2023-03-13T04:36:20;8.50;99.90
1644;DHT22;46825;51.99869940;8.49421771;2023-03-13T04:37:21;8.50;99.90
1644;DHT22;46825;51.99869940;8.49421771;2023-03-13T04:38:22;8.50;99.90
1644;DHT22;46825;51.99869940;8.49421771;2023-03-13T04:39:22;8.60;99.90
1644;DHT22;46825;51.99869940;8.49421771;2023-03-13T04:40:24;8.70;99.90
1644;DHT22;46825;51.99869940;8.49421771;2023-03-13T04:41:25;8.60;99.90
1644;DHT22;46825;51.99869940;8.49421771;2023-03-13T04:42:25;8.60;99.90
1644;DHT22;46825;51.99869940;8.49421771;2023-03-13T04:43:26;8.60;99.90
1644;DHT22;46825;51.99869940;8.49421771;2023-03-13T04:44:26;8.70;99.90
1644;DHT22;46825;51.99869940;8.49421771;2023-03-13T04:45:27;8.70;99.90
1644;DHT22;46825;51.99869940;8.49421771;2023-03-13T04:46:28;8.70;99.90
1644;DHT22;46825;51.99869940;8.49421771;2023-03-13T04:47:28;8.70;99.90
1644;DHT22;46825;51.99869940;8.49421771;2023-03-13T04:48:29;8.80;99.90
1644;DHT22;46825;51.99869940;8.49421771;2023-03-13T04:49:29;8.80;99.90
1644;DHT22;46825;51.99869940;8.49421771;2023-03-13T04:50:30;8.80;99.90
1644;DHT22;46825;51.99869940;8.49421771;2023-03-13T04:51:31;8.80;99.90
1644;DHT22;46825;51.99869940;8.49421771;2023-03-13T04:52:31;8.80;99.90
1644;DHT22;46825;51.99869940;8.49421771;2023-03-13T04:53:32;9.00;99.90
1644;DHT22;46825;51.99869940;8.49421771;2023-03-13T04:54:32;8.90;99.90
1644;DHT22;46825;51.99869940;8.49421771;2023-03-13T04:55:33;8.90;99.90
1644;DHT22;46825;51.99869940;8.49421771;2023-03-13T04:56:34;8.90;99.90
1644;DHT22;46825;51.99869940;8.49421771;2023-03-13T04:57:34;8.90;99.90
1644;DHT22;46825;51.99869940;8.49421771;2023-03-13T04:58:35;8.90;99.90
1644;DHT22;46825;51.99869940;8.49421771;2023-03-13T04:59:36;9.00;99.90
1644;DHT22;46825;51.99869940;8.49421771;2023-03-13T05:00:39;9.00;99.90
1644;DHT22;46825;51.99869940;8.49421771;2023-03-13T05:01:40;8.90;99.90
1644;DHT22;46825;51.99869940;8.49421771;2023-03-13T05:02:41;8.90;99.90
1644;DHT22;46825;51.99869940;8.49421771;2023-03-13T05:03:42;9.00;99.90
1644;DHT22;46825;51.99869940;8.49421771;2023-03-13T05:04:42;9.00;99.90
1644;DHT22;46825;51.99869940;8.49421771;2023-03-13T05:05:43;9.80;99.90
1644;DHT22;46825;51.99869940;8.49421771;2023-03-13T05:06:44;9.00;99.90
1644;DHT22;46825;51.99869940;8.49421771;2023-03-13T05:07:44;9.00;99.90
1644;DHT22;46825;51.99869940;8.49421771;2023-03-13T05:08:45;9.20;99.90
1644;DHT22;46825;51.99869940;8.49421771;2023-03-13T05:09:45;9.10;99.90
1644;DHT22;46825;51.99869940;8.49421771;2023-03-13T05:10:46;9.20;99.90
1644;DHT22;46825;51.99869940;8.49421771;2023-03-13T05:11:46;9.10;99.90
1644;DHT22;46825;51.99869940;8.49421771;2023-03-13T05:12:47;9.10;99.90
1644;DHT22;46825;51.99869940;8.49421771;2023-03-13T05:13:48;9.10;99.90
1644;DHT22;46825;51.99869940;8.49421771;2023-03-13T05:14:48;9.10;99.90
1644;DHT22;46825;51.99869940;8.49421771;2023-03-13T05:15:49;9.10;99.90
1644;DHT22;46825;51.99869940;8.49421771;2023-03-13T05:16:50;9.10;99.90
1644;DHT22;46825;51.99869940;8.49421771;2023-03-13T05:17:50;9.20;99.90
1644;DHT22;46825;51.99869940;8.49421771;2023-03-13T05:18:51;9.20;99.90
1644;DHT22;46825;51.99869940;8.49421771;2023-03-13T05:19:51;9.20;99.90
1644;DHT22;46825;51.99869940;8.49421771;2023-03-13T05:20:52;9.20;99.90
1644;DHT22;46825;51.99869940;8.49421771;2023-03-13T05:21:53;9.20;99.90
1644;DHT22;46825;51.99869940;8.49421771;2023-03-13T05:22:53;9.20;99.90
1644;DHT22;46825;51.99869940;8.49421771;2023-03-13T05:23:54;9.20;99.90
1644;DHT22;46825;51.99869940;8.49421771;2023-03-13T05:24:54;9.20;99.90
1644;DHT22;46825;51.99869940;8.49421771;2023-03-13T05:25:55;9.20;99.90
1644;DHT22;46825;51.99869940;8.49421771;2023-03-13T05:26:55;9.30;99.90
1644;DHT22;46825;51.99869940;8.49421771;2023-03-13T05:27:56;9.30;99.90
1644;DHT22;46825;51.99869940;8.49421771;2023-03-13T05:28:56;9.30;99.90
1644;DHT22;46825;51.99869940;8.49421771;2023-03-13T05:29:57;9.30;99.90
1644;DHT22;46825;51.99869940;8.49421771;2023-03-13T05:30:58;9.30;99.90
1644;DHT22;46825;51.99869940;8.49421771;2023-03-13T05:31:58;9.30;99.90
1644;DHT22;46825;51.99869940;8.49421771;2023-03-13T05:32:59;9.30;99.90
1644;DHT22;46825;51.99869940;8.49421771;2023-03-13T05:33:59;9.30;99.90
1644;DHT22;46825;51.99869940;8.49421771;2023-03-13T05:35:00;9.30;99.90
1644;DHT22;46825;51.99869940;8.49421771;2023-03-13T05:36:00;9.30;99.90
1644;DHT22;46825;51.99869940;8.49421771;2023-03-13T05:37:01;9.40;99.90
1644;DHT22;46825;51.99869940;8.49421771;2023-03-13T05:38:02;9.40;99.90
1644;DHT22;46825;51.99869940;8.49421771;2023-03-13T05:39:02;9.50;99.90
1644;DHT22;46825;51.99869940;8.49421771;2023-03-13T05:40:03;9.50;99.90
1644;DHT22;46825;51.99869940;8.49421771;2023-03-13T05:41:04;9.50;99.90
1644;DHT22;46825;51.99869940;8.49421771;2023-03-13T05:42:05;9.60;99.90
1644;DHT22;46825;51.99869940;8.49421771;2023-03-13T05:43:07;9.50;99.90
1644;DHT22;46825;51.99869940;8.49421771;2023-03-13T05:44:07;9.60;99.90
1644;DHT22;46825;51.99869940;8.49421771;2023-03-13T05:45:08;9.60;99.90
1644;DHT22;46825;51.99869940;8.49421771;2023-03-13T05:46:09;9.60;99.90
1644;DHT22;46825;51.99869940;8.49421771;2023-03-13T05:47:10;10.90;99.90
1644;DHT22;46825;51.99869940;8.49421771;2023-03-13T05:48:10;9.50;99.90
1644;DHT22;46825;51.99869940;8.49421771;2023-03-13T05:49:11;9.60;99.90
1644;DHT22;46825;51.99869940;8.49421771;2023-03-13T05:50:12;9.70;99.90
1644;DHT22;46825;51.99869940;8.49421771;2023-03-13T05:51:12;9.70;99.90
1644;DHT22;46825;51.99869940;8.49421771;2023-03-13T05:52:13;9.70;99.90
1644;DHT22;46825;51.99869940;8.49421771;2023-03-13T05:53:13;9.70;99.90